sensor_id;sensor_type;location;lat;lon;timestamp;P1;durP1;ratioP1;P2;durP2;ratioP2
52964;SDS011;42923;53.220;6.528;2023-07-30T00:01:44;30.60;;;9.93;;
52964;SDS011;42923;53.220;6.528;2023-07-30T00:04:10;24.55;;;10.15;;
52964;SDS011;42923;53.220;6.528;2023-07-30T00:06:35;33.70;;;10.98;;
52964;SDS011;42923;53.220;6.528;2023-07-30T00:09:01;32.03;;;10.45;;
52964;SDS011;42923;53.220;6.528;2023-07-30T00:11:27;32.78;;;10.80;;
52964;SDS011;42923;53.220;6.528;2023-07-30T00:13:53;21.80;;;8.77;;
52964;SDS011;42923;53.220;6.528;2023-07-30T00:16:19;26.23;;;10.02;;
52964;SDS011;42923;53.220;6.528;2023-07-30T00:18:44;34.90;;;9.55;;
52964;SDS011;42923;53.220;6.528;2023-07-30T00:21:10;24.08;;;9.80;;
52964;SDS011;42923;53.220;6.528;2023-07-30T00:23:36;36.47;;;10.18;;
52964;SDS011;42923;53.220;6.528;2023-07-30T00:26:02;34.55;;;11.50;;
52964;SDS011;42923;53.220;6.528;2023-07-30T00:28:27;27.85;;;9.73;;
52964;SDS011;42923;53.220;6.528;2023-07-30T00:30:53;22.92;;;8.82;;
52964;SDS011;42923;53.220;6.528;2023-07-30T00:33:19;28.55;;;9.75;;
52964;SDS011;42923;53.220;6.528;2023-07-30T00:35:45;21.20;;;9.38;;
52964;SDS011;42923;53.220;6.528;2023-07-30T00:38:11;24.45;;;9.18;;
52964;SDS011;42923;53.220;6.528;2023-07-30T00:40:40;23.20;;;8.10;;
52964;SDS011;42923;53.220;6.528;2023-07-30T00:43:06;26.98;;;9.80;;
52964;SDS011;42923;53.220;6.528;2023-07-30T00:45:32;32.17;;;10.43;;
52964;SDS011;42923;53.220;6.528;2023-07-30T00:47:59;27.63;;;10.00;;
52964;SDS011;42923;53.220;6.528;2023-07-30T00:50:25;30.58;;;9.63;;
52964;SDS011;42923;53.220;6.528;2023-07-30T00:52:51;26.73;;;8.85;;
52964;SDS011;42923;53.220;6.528;2023-07-30T00:55:17;27.10;;;8.65;;
52964;SDS011;42923;53.220;6.528;2023-07-30T00:57:44;29.65;;;10.38;;
52964;SDS011;42923;53.220;6.528;2023-07-30T01:00:11;24.27;;;9.25;;
52964;SDS011;42923;53.220;6.528;2023-07-30T01:02:37;27.35;;;8.32;;
52964;SDS011;42923;53.220;6.528;2023-07-30T01:05:03;25.45;;;9.23;;
52964;SDS011;42923;53.220;6.528;2023-07-30T01:07:30;37.15;;;9.95;;
52964;SDS011;42923;53.220;6.528;2023-07-30T01:09:56;34.10;;;10.35;;
52964;SDS011;42923;53.220;6.528;2023-07-30T01:12:22;30.80;;;11.00;;
52964;SDS011;42923;53.220;6.528;2023-07-30T01:14:48;29.67;;;9.35;;
52964;SDS011;42923;53.220;6.528;2023-07-30T01:17:15;31.63;;;10.25;;
52964;SDS011;42923;53.220;6.528;2023-07-30T01:19:42;28.13;;;10.15;;
52964;SDS011;42923;53.220;6.528;2023-07-30T01:22:07;21.23;;;8.85;;
52964;SDS011;42923;53.220;6.528;2023-07-30T01:24:33;25.77;;;8.82;;
52964;SDS011;42923;53.220;6.528;2023-07-30T01:27:01;27.73;;;8.80;;
52964;SDS011;42923;53.220;6.528;2023-07-30T01:29:49;21.60;;;7.75;;
52964;SDS011;42923;53.220;6.528;2023-07-30T01:32:19;25.48;;;8.45;;
52964;SDS011;42923;53.220;6.528;2023-07-30T01:34:49;26.90;;;7.93;;
52964;SDS011;42923;53.220;6.528;2023-07-30T01:37:18;23.30;;;8.07;;
52964;SDS011;42923;53.220;6.528;2023-07-30T01:39:44;17.75;;;7.03;;
52964;SDS011;42923;53.220;6.528;2023-07-30T01:42:12;21.67;;;7.53;;
52964;SDS011;42923;53.220;6.528;2023-07-30T01:44:37;26.63;;;8.68;;
52964;SDS011;42923;53.220;6.528;2023-07-30T01:47:04;23.02;;;7.70;;
52964;SDS011;42923;53.220;6.528;2023-07-30T01:49:30;26.70;;;9.07;;
52964;SDS011;42923;53.220;6.528;2023-07-30T01:51:55;25.48;;;8.55;;
52964;SDS011;42923;53.220;6.528;2023-07-30T01:54:21;21.67;;;7.75;;
52964;SDS011;42923;53.220;6.528;2023-07-30T01:56:47;25.45;;;8.20;;
52964;SDS011;42923;53.220;6.528;2023-07-30T01:59:13;26.63;;;7.93;;
52964;SDS011;42923;53.220;6.528;2023-07-30T02:01:39;24.85;;;7.80;;
52964;SDS011;42923;53.220;6.528;2023-07-30T02:04:05;27.83;;;7.80;;
52964;SDS011;42923;53.220;6.528;2023-07-30T02:06:31;18.13;;;8.35;;
52964;SDS011;42923;53.220;6.528;2023-07-30T02:08:57;30.80;;;8.18;;
52964;SDS011;42923;53.220;6.528;2023-07-30T02:11:23;22.10;;;6.80;;
52964;SDS011;42923;53.220;6.528;2023-07-30T02:13:49;24.20;;;7.82;;
52964;SDS011;42923;53.220;6.528;2023-07-30T02:16:14;30.02;;;7.53;;
52964;SDS011;42923;53.220;6.528;2023-07-30T02:18:40;20.40;;;7.53;;
52964;SDS011;42923;53.220;6.528;2023-07-30T02:21:06;17.25;;;7.50;;
52964;SDS011;42923;53.220;6.528;2023-07-30T02:23:32;24.77;;;7.25;;
52964;SDS011;42923;53.220;6.528;2023-07-30T02:25:58;27.60;;;8.90;;
52964;SDS011;42923;53.220;6.528;2023-07-30T02:28:23;22.65;;;8.65;;
52964;SDS011;42923;53.220;6.528;2023-07-30T02:30:49;27.35;;;9.10;;
52964;SDS011;42923;53.220;6.528;2023-07-30T02:33:15;27.05;;;7.53;;
52964;SDS011;42923;53.220;6.528;2023-07-30T02:35:42;24.23;;;7.63;;
52964;SDS011;42923;53.220;6.528;2023-07-30T02:38:08;19.85;;;7.15;;
52964;SDS011;42923;53.220;6.528;2023-07-30T02:40:34;32.15;;;8.52;;
52964;SDS011;42923;53.220;6.528;2023-07-30T02:43:00;22.60;;;6.90;;
52964;SDS011;42923;53.220;6.528;2023-07-30T02:45:26;31.67;;;6.95;;
52964;SDS011;42923;53.220;6.528;2023-07-30T02:47:51;29.30;;;8.52;;
52964;SDS011;42923;53.220;6.528;2023-07-30T02:50:17;22.85;;;7.07;;
52964;SDS011;42923;53.220;6.528;2023-07-30T02:52:43;26.60;;;7.53;;
52964;SDS011;42923;53.220;6.528;2023-07-30T02:55:09;23.50;;;7.53;;
52964;SDS011;42923;53.220;6.528;2023-07-30T02:57:35;26.25;;;6.97;;
52964;SDS011;42923;53.220;6.528;2023-07-30T03:00:01;29.63;;;7.88;;
52964;SDS011;42923;53.220;6.528;2023-07-30T03:02:28;22.17;;;7.38;;
52964;SDS011;42923;53.220;6.528;2023-07-30T03:04:54;28.58;;;7.72;;
52964;SDS011;42923;53.220;6.528;2023-07-30T03:07:20;25.30;;;7.10;;
52964;SDS011;42923;53.220;6.528;2023-07-30T03:09:46;25.25;;;7.47;;
52964;SDS011;42923;53.220;6.528;2023-07-30T03:12:12;27.25;;;9.10;;
52964;SDS011;42923;53.220;6.528;2023-07-30T03:14:37;25.88;;;7.03;;
52964;SDS011;42923;53.220;6.528;2023-07-30T03:17:03;29.17;;;7.30;;
52964;SDS011;42923;53.220;6.528;2023-07-30T03:19:30;24.55;;;6.70;;
52964;SDS011;42923;53.220;6.528;2023-07-30T03:21:56;28.35;;;7.05;;
52964;SDS011;42923;53.220;6.528;2023-07-30T03:24:22;25.02;;;6.82;;
52964;SDS011;42923;53.220;6.528;2023-07-30T03:26:47;25.65;;;6.55;;
52964;SDS011;42923;53.220;6.528;2023-07-30T03:29:14;20.73;;;6.80;;
52964;SDS011;42923;53.220;6.528;2023-07-30T03:31:40;32.28;;;7.40;;
52964;SDS011;42923;53.220;6.528;2023-07-30T03:34:06;21.10;;;6.43;;
52964;SDS011;42923;53.220;6.528;2023-07-30T03:36:32;26.45;;;6.93;;
52964;SDS011;42923;53.220;6.528;2023-07-30T03:38:58;22.17;;;7.53;;
52964;SDS011;42923;53.220;6.528;2023-07-30T03:41:24;23.65;;;6.80;;
52964;SDS011;42923;53.220;6.528;2023-07-30T03:43:52;26.80;;;7.45;;
52964;SDS011;42923;53.220;6.528;2023-07-30T03:46:18;32.70;;;9.23;;
52964;SDS011;42923;53.220;6.528;2023-07-30T03:48:43;29.33;;;7.57;;
52964;SDS011;42923;53.220;6.528;2023-07-30T03:51:09;24.52;;;6.28;;
52964;SDS011;42923;53.220;6.528;2023-07-30T03:53:36;28.98;;;6.40;;
52964;SDS011;42923;53.220;6.528;2023-07-30T03:56:01;31.42;;;7.13;;
52964;SDS011;42923;53.220;6.528;2023-07-30T03:58:27;28.13;;;7.40;;
52964;SDS011;42923;53.220;6.528;2023-07-30T04:00:56;23.83;;;7.13;;
52964;SDS011;42923;53.220;6.528;2023-07-30T04:03:22;24.70;;;6.95;;
52964;SDS011;42923;53.220;6.528;2023-07-30T04:05:47;21.88;;;7.43;;
52964;SDS011;42923;53.220;6.528;2023-07-30T04:08:13;32.40;;;7.57;;
52964;SDS011;42923;53.220;6.528;2023-07-30T04:10:39;23.77;;;7.65;;
52964;SDS011;42923;53.220;6.528;2023-07-30T04:13:05;29.38;;;7.43;;
52964;SDS011;42923;53.220;6.528;2023-07-30T04:15:33;25.50;;;6.85;;
52964;SDS011;42923;53.220;6.528;2023-07-30T04:17:59;32.97;;;8.68;;
52964;SDS011;42923;53.220;6.528;2023-07-30T04:20:24;25.77;;;6.45;;
52964;SDS011;42923;53.220;6.528;2023-07-30T04:22:51;24.08;;;7.32;;
52964;SDS011;42923;53.220;6.528;2023-07-30T04:25:17;31.50;;;6.78;;
52964;SDS011;42923;53.220;6.528;2023-07-30T04:27:43;29.55;;;7.07;;
52964;SDS011;42923;53.220;6.528;2023-07-30T04:30:09;22.15;;;6.78;;
52964;SDS011;42923;53.220;6.528;2023-07-30T04:32:35;34.33;;;7.35;;
52964;SDS011;42923;53.220;6.528;2023-07-30T04:35:01;28.17;;;7.30;;
52964;SDS011;42923;53.220;6.528;2023-07-30T04:37:28;21.65;;;6.30;;
52964;SDS011;42923;53.220;6.528;2023-07-30T04:39:54;33.22;;;6.80;;
52964;SDS011;42923;53.220;6.528;2023-07-30T04:42:20;21.42;;;6.28;;
52964;SDS011;42923;53.220;6.528;2023-07-30T04:44:46;20.55;;;6.38;;
52964;SDS011;42923;53.220;6.528;2023-07-30T04:47:15;21.17;;;6.53;;
52964;SDS011;42923;53.220;6.528;2023-07-30T04:49:41;19.55;;;5.65;;
52964;SDS011;42923;53.220;6.528;2023-07-30T04:52:07;20.42;;;6.18;;
52964;SDS011;42923;53.220;6.528;2023-07-30T04:54:33;21.38;;;6.72;;
52964;SDS011;42923;53.220;6.528;2023-07-30T04:57:01;23.67;;;6.05;;
52964;SDS011;42923;53.220;6.528;2023-07-30T04:59:28;20.02;;;5.85;;
52964;SDS011;42923;53.220;6.528;2023-07-30T05:01:53;23.48;;;6.28;;
52964;SDS011;42923;53.220;6.528;2023-07-30T05:04:19;28.70;;;7.25;;
52964;SDS011;42923;53.220;6.528;2023-07-30T05:06:45;18.83;;;5.40;;
52964;SDS011;42923;53.220;6.528;2023-07-30T05:09:11;20.15;;;6.15;;
52964;SDS011;42923;53.220;6.528;2023-07-30T05:11:37;20.60;;;5.10;;
52964;SDS011;42923;53.220;6.528;2023-07-30T05:14:03;17.80;;;5.57;;
52964;SDS011;42923;53.220;6.528;2023-07-30T05:16:29;20.48;;;7.20;;
52964;SDS011;42923;53.220;6.528;2023-07-30T05:18:55;23.30;;;5.72;;
52964;SDS011;42923;53.220;6.528;2023-07-30T05:21:20;23.58;;;5.90;;
52964;SDS011;42923;53.220;6.528;2023-07-30T05:23:46;18.23;;;5.05;;
52964;SDS011;42923;53.220;6.528;2023-07-30T05:26:12;17.88;;;4.53;;
52964;SDS011;42923;53.220;6.528;2023-07-30T05:28:38;18.10;;;4.50;;
52964;SDS011;42923;53.220;6.528;2023-07-30T05:31:03;16.25;;;4.85;;
52964;SDS011;42923;53.220;6.528;2023-07-30T05:33:29;18.73;;;4.35;;
52964;SDS011;42923;53.220;6.528;2023-07-30T05:35:55;14.80;;;5.13;;
52964;SDS011;42923;53.220;6.528;2023-07-30T05:38:21;18.67;;;5.63;;
52964;SDS011;42923;53.220;6.528;2023-07-30T05:40:46;15.77;;;4.45;;
52964;SDS011;42923;53.220;6.528;2023-07-30T05:43:13;17.88;;;5.28;;
52964;SDS011;42923;53.220;6.528;2023-07-30T05:45:38;17.15;;;4.47;;
52964;SDS011;42923;53.220;6.528;2023-07-30T05:48:04;12.85;;;3.33;;
52964;SDS011;42923;53.220;6.528;2023-07-30T05:50:30;14.75;;;4.38;;
52964;SDS011;42923;53.220;6.528;2023-07-30T05:52:55;19.23;;;4.70;;
52964;SDS011;42923;53.220;6.528;2023-07-30T05:55:21;14.00;;;4.25;;
52964;SDS011;42923;53.220;6.528;2023-07-30T05:57:47;16.40;;;3.67;;
52964;SDS011;42923;53.220;6.528;2023-07-30T06:00:13;13.90;;;4.18;;
52964;SDS011;42923;53.220;6.528;2023-07-30T06:02:39;14.52;;;3.33;;
52964;SDS011;42923;53.220;6.528;2023-07-30T06:05:04;15.35;;;3.47;;
52964;SDS011;42923;53.220;6.528;2023-07-30T06:07:30;15.15;;;3.65;;
52964;SDS011;42923;53.220;6.528;2023-07-30T06:09:56;14.13;;;3.45;;
52964;SDS011;42923;53.220;6.528;2023-07-30T06:12:22;14.32;;;4.78;;
52964;SDS011;42923;53.220;6.528;2023-07-30T06:14:47;18.23;;;4.00;;
52964;SDS011;42923;53.220;6.528;2023-07-30T06:17:13;15.15;;;4.45;;
52964;SDS011;42923;53.220;6.528;2023-07-30T06:19:39;12.05;;;3.58;;
52964;SDS011;42923;53.220;6.528;2023-07-30T06:22:05;15.15;;;4.10;;
52964;SDS011;42923;53.220;6.528;2023-07-30T06:24:31;17.73;;;3.45;;
52964;SDS011;42923;53.220;6.528;2023-07-30T06:26:56;10.13;;;3.97;;
52964;SDS011;42923;53.220;6.528;2023-07-30T06:29:22;15.75;;;3.92;;
52964;SDS011;42923;53.220;6.528;2023-07-30T06:31:48;15.07;;;3.90;;
52964;SDS011;42923;53.220;6.528;2023-07-30T06:34:14;12.82;;;3.50;;
52964;SDS011;42923;53.220;6.528;2023-07-30T06:36:40;9.98;;;3.25;;
52964;SDS011;42923;53.220;6.528;2023-07-30T06:39:05;14.00;;;3.67;;
52964;SDS011;42923;53.220;6.528;2023-07-30T06:41:31;12.02;;;3.47;;
52964;SDS011;42923;53.220;6.528;2023-07-30T06:43:57;11.98;;;3.63;;
52964;SDS011;42923;53.220;6.528;2023-07-30T06:46:23;14.85;;;3.85;;
52964;SDS011;42923;53.220;6.528;2023-07-30T06:48:49;13.60;;;3.83;;
52964;SDS011;42923;53.220;6.528;2023-07-30T06:51:17;9.15;;;3.38;;
52964;SDS011;42923;53.220;6.528;2023-07-30T06:53:44;14.38;;;3.97;;
52964;SDS011;42923;53.220;6.528;2023-07-30T06:56:10;16.48;;;4.13;;
52964;SDS011;42923;53.220;6.528;2023-07-30T06:58:36;9.20;;;3.40;;
52964;SDS011;42923;53.220;6.528;2023-07-30T07:01:02;12.65;;;4.18;;
52964;SDS011;42923;53.220;6.528;2023-07-30T07:03:27;12.88;;;4.57;;
52964;SDS011;42923;53.220;6.528;2023-07-30T07:05:54;20.00;;;4.30;;
52964;SDS011;42923;53.220;6.528;2023-07-30T07:08:20;21.88;;;4.65;;
52964;SDS011;42923;53.220;6.528;2023-07-30T07:10:47;13.65;;;3.92;;
52964;SDS011;42923;53.220;6.528;2023-07-30T07:13:13;17.90;;;3.58;;
52964;SDS011;42923;53.220;6.528;2023-07-30T07:15:43;15.48;;;4.57;;
52964;SDS011;42923;53.220;6.528;2023-07-30T07:18:10;13.60;;;3.92;;
52964;SDS011;42923;53.220;6.528;2023-07-30T07:20:36;14.20;;;3.35;;
52964;SDS011;42923;53.220;6.528;2023-07-30T07:23:03;9.50;;;3.33;;
52964;SDS011;42923;53.220;6.528;2023-07-30T07:25:28;10.00;;;3.25;;
52964;SDS011;42923;53.220;6.528;2023-07-30T07:27:54;16.00;;;3.40;;
52964;SDS011;42923;53.220;6.528;2023-07-30T07:30:20;15.82;;;3.90;;
52964;SDS011;42923;53.220;6.528;2023-07-30T07:32:46;14.52;;;4.13;;
52964;SDS011;42923;53.220;6.528;2023-07-30T07:35:18;8.85;;;3.10;;
52964;SDS011;42923;53.220;6.528;2023-07-30T07:37:45;13.70;;;3.03;;
52964;SDS011;42923;53.220;6.528;2023-07-30T07:40:11;7.60;;;2.30;;
52964;SDS011;42923;53.220;6.528;2023-07-30T07:42:40;13.68;;;2.70;;
52964;SDS011;42923;53.220;6.528;2023-07-30T07:45:06;9.38;;;2.88;;
52964;SDS011;42923;53.220;6.528;2023-07-30T07:47:32;10.07;;;2.42;;
52964;SDS011;42923;53.220;6.528;2023-07-30T07:49:58;10.23;;;3.67;;
52964;SDS011;42923;53.220;6.528;2023-07-30T07:52:24;8.73;;;2.65;;
52964;SDS011;42923;53.220;6.528;2023-07-30T07:54:49;12.02;;;2.80;;
52964;SDS011;42923;53.220;6.528;2023-07-30T07:57:15;12.90;;;2.83;;
52964;SDS011;42923;53.220;6.528;2023-07-30T07:59:41;12.50;;;2.50;;
52964;SDS011;42923;53.220;6.528;2023-07-30T08:02:10;13.63;;;2.78;;
52964;SDS011;42923;53.220;6.528;2023-07-30T08:04:36;13.02;;;2.67;;
52964;SDS011;42923;53.220;6.528;2023-07-30T08:07:02;9.20;;;2.90;;
52964;SDS011;42923;53.220;6.528;2023-07-30T08:09:29;9.50;;;2.67;;
52964;SDS011;42923;53.220;6.528;2023-07-30T08:11:55;16.13;;;2.78;;
52964;SDS011;42923;53.220;6.528;2023-07-30T08:14:21;9.63;;;2.92;;
52964;SDS011;42923;53.220;6.528;2023-07-30T08:16:47;8.43;;;3.20;;
52964;SDS011;42923;53.220;6.528;2023-07-30T08:19:12;7.93;;;2.22;;
52964;SDS011;42923;53.220;6.528;2023-07-30T08:21:38;11.73;;;3.30;;
52964;SDS011;42923;53.220;6.528;2023-07-30T08:24:04;13.90;;;3.28;;
52964;SDS011;42923;53.220;6.528;2023-07-30T08:26:30;12.55;;;2.25;;
52964;SDS011;42923;53.220;6.528;2023-07-30T08:28:57;9.75;;;2.38;;
52964;SDS011;42923;53.220;6.528;2023-07-30T08:31:23;9.65;;;2.40;;
52964;SDS011;42923;53.220;6.528;2023-07-30T08:33:49;11.98;;;3.22;;
52964;SDS011;42923;53.220;6.528;2023-07-30T08:36:15;8.98;;;2.40;;
52964;SDS011;42923;53.220;6.528;2023-07-30T08:38:40;8.98;;;2.30;;
52964;SDS011;42923;53.220;6.528;2023-07-30T08:41:06;10.35;;;2.28;;
52964;SDS011;42923;53.220;6.528;2023-07-30T08:43:32;12.57;;;3.05;;
52964;SDS011;42923;53.220;6.528;2023-07-30T08:46:00;13.10;;;3.72;;
52964;SDS011;42923;53.220;6.528;2023-07-30T08:48:26;9.93;;;2.60;;
52964;SDS011;42923;53.220;6.528;2023-07-30T08:50:52;12.55;;;3.85;;
52964;SDS011;42923;53.220;6.528;2023-07-30T08:53:21;10.70;;;2.30;;
52964;SDS011;42923;53.220;6.528;2023-07-30T08:55:49;10.80;;;2.67;;
52964;SDS011;42923;53.220;6.528;2023-07-30T08:58:15;9.48;;;2.50;;
52964;SDS011;42923;53.220;6.528;2023-07-30T09:00:42;9.50;;;3.67;;
52964;SDS011;42923;53.220;6.528;2023-07-30T09:03:08;6.53;;;1.95;;
52964;SDS011;42923;53.220;6.528;2023-07-30T09:05:34;10.23;;;2.88;;
52964;SDS011;42923;53.220;6.528;2023-07-30T09:08:00;6.35;;;1.95;;
52964;SDS011;42923;53.220;6.528;2023-07-30T09:10:26;11.75;;;2.85;;
52964;SDS011;42923;53.220;6.528;2023-07-30T09:12:55;8.55;;;2.45;;
52964;SDS011;42923;53.220;6.528;2023-07-30T09:15:34;11.25;;;2.42;;
52964;SDS011;42923;53.220;6.528;2023-07-30T09:18:04;13.23;;;2.70;;
52964;SDS011;42923;53.220;6.528;2023-07-30T09:20:40;7.38;;;2.63;;
52964;SDS011;42923;53.220;6.528;2023-07-30T09:23:07;10.20;;;2.58;;
52964;SDS011;42923;53.220;6.528;2023-07-30T09:25:34;11.45;;;2.08;;
52964;SDS011;42923;53.220;6.528;2023-07-30T09:28:00;10.18;;;2.60;;
52964;SDS011;42923;53.220;6.528;2023-07-30T09:30:26;9.52;;;2.35;;
52964;SDS011;42923;53.220;6.528;2023-07-30T09:32:53;6.57;;;2.00;;
52964;SDS011;42923;53.220;6.528;2023-07-30T09:35:23;7.15;;;2.50;;
52964;SDS011;42923;53.220;6.528;2023-07-30T09:37:57;10.80;;;2.38;;
52964;SDS011;42923;53.220;6.528;2023-07-30T09:40:31;4.80;;;1.55;;
52964;SDS011;42923;53.220;6.528;2023-07-30T09:42:58;4.03;;;1.30;;
52964;SDS011;42923;53.220;6.528;2023-07-30T09:45:24;4.97;;;1.40;;
52964;SDS011;42923;53.220;6.528;2023-07-30T09:47:52;4.93;;;1.60;;
52964;SDS011;42923;53.220;6.528;2023-07-30T09:50:19;5.47;;;1.58;;
52964;SDS011;42923;53.220;6.528;2023-07-30T09:52:45;5.35;;;1.55;;
52964;SDS011;42923;53.220;6.528;2023-07-30T09:55:11;5.90;;;1.15;;
52964;SDS011;42923;53.220;6.528;2023-07-30T09:57:37;5.60;;;1.30;;
52964;SDS011;42923;53.220;6.528;2023-07-30T10:00:04;5.40;;;1.60;;
52964;SDS011;42923;53.220;6.528;2023-07-30T10:02:35;7.45;;;1.33;;
52964;SDS011;42923;53.220;6.528;2023-07-30T10:05:03;5.60;;;1.55;;
52964;SDS011;42923;53.220;6.528;2023-07-30T10:07:36;4.93;;;1.60;;
52964;SDS011;42923;53.220;6.528;2023-07-30T10:10:05;8.30;;;2.05;;
52964;SDS011;42923;53.220;6.528;2023-07-30T10:12:33;5.80;;;1.75;;
52964;SDS011;42923;53.220;6.528;2023-07-30T10:15:01;5.80;;;1.50;;
52964;SDS011;42923;53.220;6.528;2023-07-30T10:17:27;7.25;;;1.63;;
52964;SDS011;42923;53.220;6.528;2023-07-30T10:19:56;5.03;;;2.60;;
52964;SDS011;42923;53.220;6.528;2023-07-30T10:22:22;6.35;;;2.72;;
52964;SDS011;42923;53.220;6.528;2023-07-30T10:25:00;9.25;;;2.05;;
52964;SDS011;42923;53.220;6.528;2023-07-30T10:27:29;5.53;;;1.80;;
52964;SDS011;42923;53.220;6.528;2023-07-30T10:30:13;4.97;;;1.73;;
52964;SDS011;42923;53.220;6.528;2023-07-30T10:35:05;5.95;;;2.05;;
52964;SDS011;42923;53.220;6.528;2023-07-30T10:37:31;8.55;;;2.63;;
52964;SDS011;42923;53.220;6.528;2023-07-30T10:39:57;6.78;;;1.92;;
52964;SDS011;42923;53.220;6.528;2023-07-30T10:42:23;5.30;;;2.55;;
52964;SDS011;42923;53.220;6.528;2023-07-30T10:44:49;6.32;;;2.47;;
52964;SDS011;42923;53.220;6.528;2023-07-30T10:47:14;7.90;;;2.42;;
52964;SDS011;42923;53.220;6.528;2023-07-30T10:49:40;5.93;;;1.90;;
52964;SDS011;42923;53.220;6.528;2023-07-30T10:52:09;5.03;;;1.90;;
52964;SDS011;42923;53.220;6.528;2023-07-30T10:54:35;8.98;;;2.80;;
52964;SDS011;42923;53.220;6.528;2023-07-30T10:57:02;12.82;;;2.55;;
52964;SDS011;42923;53.220;6.528;2023-07-30T10:59:35;6.03;;;2.50;;
52964;SDS011;42923;53.220;6.528;2023-07-30T11:02:03;9.85;;;2.53;;
52964;SDS011;42923;53.220;6.528;2023-07-30T11:04:29;9.52;;;2.63;;
52964;SDS011;42923;53.220;6.528;2023-07-30T11:06:59;7.60;;;2.80;;
52964;SDS011;42923;53.220;6.528;2023-07-30T11:09:26;7.35;;;1.95;;
52964;SDS011;42923;53.220;6.528;2023-07-30T11:11:54;9.18;;;2.00;;
52964;SDS011;42923;53.220;6.528;2023-07-30T11:14:21;9.07;;;1.95;;
52964;SDS011;42923;53.220;6.528;2023-07-30T11:19:15;12.80;;;2.65;;
52964;SDS011;42923;53.220;6.528;2023-07-30T11:21:44;4.10;;;1.67;;
52964;SDS011;42923;53.220;6.528;2023-07-30T11:24:11;9.40;;;2.85;;
52964;SDS011;42923;53.220;6.528;2023-07-30T11:26:37;9.30;;;2.75;;
52964;SDS011;42923;53.220;6.528;2023-07-30T11:29:18;10.30;;;2.42;;
52964;SDS011;42923;53.220;6.528;2023-07-30T11:31:45;7.05;;;1.80;;
52964;SDS011;42923;53.220;6.528;2023-07-30T11:34:15;9.18;;;2.42;;
52964;SDS011;42923;53.220;6.528;2023-07-30T11:36:43;8.55;;;2.75;;
52964;SDS011;42923;53.220;6.528;2023-07-30T11:39:09;6.53;;;1.70;;
52964;SDS011;42923;53.220;6.528;2023-07-30T11:41:35;6.97;;;2.05;;
52964;SDS011;42923;53.220;6.528;2023-07-30T11:44:02;8.20;;;2.35;;
52964;SDS011;42923;53.220;6.528;2023-07-30T11:46:29;12.18;;;3.35;;
52964;SDS011;42923;53.220;6.528;2023-07-30T11:49:11;5.43;;;2.05;;
52964;SDS011;42923;53.220;6.528;2023-07-30T11:51:46;8.20;;;2.22;;
52964;SDS011;42923;53.220;6.528;2023-07-30T11:54:22;8.90;;;2.55;;
52964;SDS011;42923;53.220;6.528;2023-07-30T11:56:53;8.15;;;2.30;;
52964;SDS011;42923;53.220;6.528;2023-07-30T11:59:21;12.30;;;2.33;;
52964;SDS011;42923;53.220;6.528;2023-07-30T12:01:47;8.98;;;2.40;;
52964;SDS011;42923;53.220;6.528;2023-07-30T12:04:13;9.43;;;2.28;;
52964;SDS011;42923;53.220;6.528;2023-07-30T12:06:45;8.30;;;2.17;;
52964;SDS011;42923;53.220;6.528;2023-07-30T12:09:14;10.38;;;1.90;;
52964;SDS011;42923;53.220;6.528;2023-07-30T12:11:50;9.48;;;2.30;;
52964;SDS011;42923;53.220;6.528;2023-07-30T12:14:21;9.95;;;2.50;;
52964;SDS011;42923;53.220;6.528;2023-07-30T12:16:50;6.13;;;2.00;;
52964;SDS011;42923;53.220;6.528;2023-07-30T12:19:16;6.25;;;2.00;;
52964;SDS011;42923;53.220;6.528;2023-07-30T12:21:42;8.25;;;2.08;;
52964;SDS011;42923;53.220;6.528;2023-07-30T12:24:08;8.63;;;2.70;;
52964;SDS011;42923;53.220;6.528;2023-07-30T12:26:33;8.25;;;2.22;;
52964;SDS011;42923;53.220;6.528;2023-07-30T12:28:59;7.35;;;1.85;;
52964;SDS011;42923;53.220;6.528;2023-07-30T12:31:25;5.93;;;2.35;;
52964;SDS011;42923;53.220;6.528;2023-07-30T12:33:51;8.27;;;2.38;;
52964;SDS011;42923;53.220;6.528;2023-07-30T12:36:16;5.47;;;1.70;;
52964;SDS011;42923;53.220;6.528;2023-07-30T12:38:42;7.43;;;1.85;;
52964;SDS011;42923;53.220;6.528;2023-07-30T12:41:08;6.07;;;1.95;;
52964;SDS011;42923;53.220;6.528;2023-07-30T12:43:33;9.57;;;1.80;;
52964;SDS011;42923;53.220;6.528;2023-07-30T12:45:59;5.53;;;1.95;;
52964;SDS011;42923;53.220;6.528;2023-07-30T12:48:25;5.95;;;1.90;;
52964;SDS011;42923;53.220;6.528;2023-07-30T12:50:51;7.13;;;1.90;;
52964;SDS011;42923;53.220;6.528;2023-07-30T12:53:16;9.23;;;1.98;;
52964;SDS011;42923;53.220;6.528;2023-07-30T12:55:42;7.63;;;2.17;;
52964;SDS011;42923;53.220;6.528;2023-07-30T12:58:08;6.85;;;2.38;;
52964;SDS011;42923;53.220;6.528;2023-07-30T13:00:34;6.80;;;2.42;;
52964;SDS011;42923;53.220;6.528;2023-07-30T13:02:59;5.95;;;1.80;;
52964;SDS011;42923;53.220;6.528;2023-07-30T13:05:27;10.10;;;2.20;;
52964;SDS011;42923;53.220;6.528;2023-07-30T13:07:52;6.47;;;1.80;;
52964;SDS011;42923;53.220;6.528;2023-07-30T13:10:18;3.70;;;1.33;;
52964;SDS011;42923;53.220;6.528;2023-07-30T13:12:44;8.90;;;1.80;;
52964;SDS011;42923;53.220;6.528;2023-07-30T13:15:10;8.20;;;2.00;;
52964;SDS011;42923;53.220;6.528;2023-07-30T13:17:36;8.02;;;1.73;;
52964;SDS011;42923;53.220;6.528;2023-07-30T13:20:02;8.57;;;2.03;;
52964;SDS011;42923;53.220;6.528;2023-07-30T13:22:29;7.45;;;1.80;;
52964;SDS011;42923;53.220;6.528;2023-07-30T13:24:55;6.13;;;1.60;;
52964;SDS011;42923;53.220;6.528;2023-07-30T13:27:20;6.80;;;2.30;;
52964;SDS011;42923;53.220;6.528;2023-07-30T13:29:46;7.18;;;2.47;;
52964;SDS011;42923;53.220;6.528;2023-07-30T13:32:13;7.60;;;1.73;;
52964;SDS011;42923;53.220;6.528;2023-07-30T13:34:40;4.70;;;1.80;;
52964;SDS011;42923;53.220;6.528;2023-07-30T13:37:06;4.65;;;1.58;;
52964;SDS011;42923;53.220;6.528;2023-07-30T13:39:32;10.98;;;1.85;;
52964;SDS011;42923;53.220;6.528;2023-07-30T13:41:57;19.35;;;2.20;;
52964;SDS011;42923;53.220;6.528;2023-07-30T13:44:23;7.80;;;2.08;;
52964;SDS011;42923;53.220;6.528;2023-07-30T13:46:49;5.50;;;1.88;;
52964;SDS011;42923;53.220;6.528;2023-07-30T13:49:15;8.05;;;1.58;;
52964;SDS011;42923;53.220;6.528;2023-07-30T13:51:41;9.27;;;1.88;;
52964;SDS011;42923;53.220;6.528;2023-07-30T13:54:07;6.38;;;1.80;;
52964;SDS011;42923;53.220;6.528;2023-07-30T13:56:33;7.35;;;1.95;;
52964;SDS011;42923;53.220;6.528;2023-07-30T13:58:59;4.80;;;1.75;;
52964;SDS011;42923;53.220;6.528;2023-07-30T14:01:25;6.55;;;1.70;;
52964;SDS011;42923;53.220;6.528;2023-07-30T14:03:51;4.20;;;1.67;;
52964;SDS011;42923;53.220;6.528;2023-07-30T14:06:16;4.97;;;1.38;;
52964;SDS011;42923;53.220;6.528;2023-07-30T14:08:42;5.18;;;1.77;;
52964;SDS011;42923;53.220;6.528;2023-07-30T14:11:08;5.70;;;1.75;;
52964;SDS011;42923;53.220;6.528;2023-07-30T14:13:34;7.35;;;1.23;;
52964;SDS011;42923;53.220;6.528;2023-07-30T14:16:00;7.70;;;1.80;;
52964;SDS011;42923;53.220;6.528;2023-07-30T14:18:25;3.50;;;1.15;;
52964;SDS011;42923;53.220;6.528;2023-07-30T14:20:51;7.80;;;2.17;;
52964;SDS011;42923;53.220;6.528;2023-07-30T14:23:17;3.92;;;1.50;;
52964;SDS011;42923;53.220;6.528;2023-07-30T14:25:43;5.68;;;1.65;;
52964;SDS011;42923;53.220;6.528;2023-07-30T14:28:09;6.53;;;1.90;;
52964;SDS011;42923;53.220;6.528;2023-07-30T14:30:35;5.40;;;1.80;;
52964;SDS011;42923;53.220;6.528;2023-07-30T14:33:01;5.18;;;2.35;;
52964;SDS011;42923;53.220;6.528;2023-07-30T14:35:27;7.65;;;2.42;;
52964;SDS011;42923;53.220;6.528;2023-07-30T14:37:54;6.15;;;2.33;;
52964;SDS011;42923;53.220;6.528;2023-07-30T14:40:19;9.15;;;2.30;;